createdAt,value
2023-01-15T00:02:18.114Z,351.85
2023-01-15T00:04:45.395Z,168.43
2023-01-15T00:07:12.774Z,639.00
2023-01-15T00:09:40.018Z,225.15
2023-01-15T00:12:07.511Z,295.50
2023-01-15T00:14:34.839Z,441.10
2023-01-15T00:17:02.037Z,256.40
2023-01-15T00:19:29.334Z,405.35
2023-01-15T00:21:58.324Z,321.38
2023-01-15T00:24:44.001Z,460.17
2023-01-15T00:27:30.105Z,404.05
2023-01-15T00:29:57.404Z,374.20
2023-01-15T00:32:27.786Z,412.85
2023-01-15T00:34:56.362Z,492.92
2023-01-15T00:37:23.629Z,397.15
2023-01-15T00:39:50.930Z,446.80
2023-01-15T00:42:18.279Z,434.70
2023-01-15T00:44:46.918Z,290.40
2023-01-15T00:47:15.294Z,141.30
2023-01-15T00:49:43.080Z,448.92
2023-01-15T00:52:11.624Z,407.23
2023-01-15T00:54:38.889Z,407.08
2023-01-15T00:57:06.199Z,362.98
2023-01-15T00:59:33.477Z,409.17
2023-01-15T01:02:00.853Z,299.65
2023-01-15T01:04:28.283Z,377.92
2023-01-15T01:06:55.877Z,225.00
2023-01-15T01:09:23.195Z,349.40
2023-01-15T01:11:50.640Z,367.20
2023-01-15T01:14:18.110Z,401.85
2023-01-15T01:16:45.473Z,408.42
2023-01-15T01:19:15.818Z,478.13
2023-01-15T01:21:44.549Z,363.00
2023-01-15T01:24:13.947Z,231.52
2023-01-15T01:26:41.870Z,313.05
2023-01-15T01:29:18.579Z,474.25
2023-01-15T01:31:46.681Z,299.20
2023-01-15T01:34:14.475Z,340.92
2023-01-15T01:36:43.334Z,393.10
2023-01-15T01:39:17.171Z,316.37
2023-01-15T01:41:44.912Z,283.60
2023-01-15T01:44:34.700Z,374.25
2023-01-15T01:47:05.387Z,405.65
2023-01-15T01:49:34.214Z,138.75
2023-01-15T01:52:07.832Z,335.85
2023-01-15T01:54:38.376Z,472.67
2023-01-15T01:57:07.449Z,276.42
2023-01-15T01:59:36.764Z,248.98
2023-01-15T02:02:04.613Z,122.57
2023-01-15T02:04:32.316Z,223.35
2023-01-15T02:07:01.664Z,441.40
2023-01-15T02:09:29.053Z,151.32
2023-01-15T02:12:02.764Z,371.00
2023-01-15T02:14:39.721Z,504.65
2023-01-15T02:17:23.105Z,415.20
2023-01-15T02:20:02.662Z,480.67
2023-01-15T02:22:48.651Z,369.83
2023-01-15T02:25:34.212Z,403.55
2023-01-15T02:28:15.371Z,200.02
2023-01-15T02:30:47.517Z,385.05
2023-01-15T02:33:24.593Z,313.35
2023-01-15T02:36:00.900Z,351.20
2023-01-15T02:38:36.961Z,333.80
2023-01-15T02:41:07.603Z,306.42
2023-01-15T02:43:40.243Z,347.85
2023-01-15T02:46:09.748Z,113.32
2023-01-15T02:48:41.584Z,124.07
2023-01-15T02:51:16.467Z,247.40
2023-01-15T02:53:49.192Z,348.38
2023-01-15T02:56:24.421Z,238.23
2023-01-15T02:58:59.567Z,211.38
2023-01-15T03:01:33.828Z,320.20
2023-01-15T03:04:27.799Z,338.63
2023-01-15T03:07:09.782Z,100.57
2023-01-15T03:09:39.193Z,167.02
2023-01-15T03:12:18.131Z,239.63
2023-01-15T03:15:08.607Z,219.93
2023-01-15T03:17:55.397Z,200.73
2023-01-15T03:20:29.294Z,248.50
2023-01-15T03:23:03.690Z,317.38
2023-01-15T03:25:37.849Z,84.55
2023-01-15T03:28:08.137Z,250.75
2023-01-15T03:30:36.645Z,284.45
2023-01-15T03:33:04.681Z,225.45
2023-01-15T03:35:46.724Z,202.13
2023-01-15T03:38:26.234Z,186.27
2023-01-15T03:41:22.202Z,95.47
2023-01-15T03:44:10.157Z,231.40
2023-01-15T03:46:43.124Z,61.10
2023-01-15T03:49:25.246Z,109.05
2023-01-15T03:52:03.867Z,276.00
2023-01-15T03:54:44.951Z,87.75
2023-01-15T03:57:38.118Z,243.73
2023-01-15T04:00:38.156Z,144.55
2023-01-15T04:03:09.596Z,251.43
2023-01-15T04:05:38.705Z,230.40
2023-01-15T04:08:08.676Z,123.40
2023-01-15T04:10:36.771Z,222.95
2023-01-15T04:13:06.470Z,387.77
2023-01-15T04:15:33.781Z,412.17
2023-01-15T04:18:02.495Z,363.10
2023-01-15T04:20:31.277Z,232.00
2023-01-15T04:22:58.628Z,303.20
2023-01-15T04:25:25.909Z,320.27
2023-01-15T04:27:56.557Z,162.73
2023-01-15T04:30:24.133Z,294.45
2023-01-15T04:32:52.163Z,325.15
2023-01-15T04:35:20.053Z,243.88
2023-01-15T04:37:47.533Z,107.22
2023-01-15T04:40:35.042Z,257.17
2023-01-15T04:43:20.880Z,161.13
2023-01-15T04:45:48.253Z,385.13
2023-01-15T04:48:15.530Z,375.92
2023-01-15T04:50:42.742Z,221.32
2023-01-15T04:53:09.988Z,230.23
2023-01-15T04:55:37.254Z,285.17
2023-01-15T04:58:04.487Z,330.73
2023-01-15T05:00:31.786Z,310.40
2023-01-15T05:02:59.146Z,146.30
2023-01-15T05:05:26.356Z,206.07
2023-01-15T05:07:53.796Z,102.10
2023-01-15T05:10:21.037Z,402.40
2023-01-15T05:12:48.304Z,203.27
2023-01-15T05:15:15.646Z,251.48
2023-01-15T05:17:42.922Z,135.35
2023-01-15T05:20:10.888Z,187.55
2023-01-15T05:22:38.137Z,123.07
2023-01-15T05:25:05.809Z,240.20
2023-01-15T05:27:33.013Z,246.68
2023-01-15T05:30:00.302Z,176.98
2023-01-15T05:32:27.620Z,249.10
2023-01-15T05:34:54.980Z,133.60
2023-01-15T05:37:22.219Z,98.93
2023-01-15T05:39:49.509Z,151.48
2023-01-15T05:42:16.719Z,156.40
2023-01-15T05:44:44.007Z,180.90
2023-01-15T05:47:11.211Z,238.23
2023-01-15T05:49:38.454Z,104.22
2023-01-15T05:52:06.002Z,171.52
2023-01-15T05:54:34.908Z,159.73
2023-01-15T05:57:03.669Z,314.02
2023-01-15T05:59:32.892Z,266.33
2023-01-15T06:02:00.360Z,155.40
2023-01-15T06:04:27.666Z,209.75
2023-01-15T06:06:56.009Z,217.40
2023-01-15T06:09:24.335Z,204.15
2023-01-15T06:11:53.688Z,234.57
2023-01-15T06:14:21.542Z,299.95
2023-01-15T06:16:48.907Z,265.90
2023-01-15T06:19:16.333Z,274.98
2023-01-15T06:21:43.846Z,264.05
2023-01-15T06:24:11.685Z,310.58
2023-01-15T06:26:39.738Z,204.27
2023-01-15T06:29:07.088Z,196.05
2023-01-15T06:31:34.519Z,142.55
2023-01-15T06:34:01.833Z,139.75
2023-01-15T06:36:29.586Z,274.77
2023-01-15T06:38:57.156Z,182.85
2023-01-15T06:41:45.032Z,348.88
2023-01-15T06:44:33.563Z,239.90
2023-01-15T06:47:21.234Z,248.77
2023-01-15T06:49:57.951Z,218.07
2023-01-15T06:52:27.665Z,173.10
2023-01-15T06:54:54.989Z,428.73
2023-01-15T06:57:22.405Z,393.50
2023-01-15T06:59:50.416Z,428.88
2023-01-15T07:02:18.378Z,197.43
2023-01-15T07:04:46.872Z,279.85
2023-01-15T07:07:15.993Z,340.35
2023-01-15T07:09:43.360Z,466.98
2023-01-15T07:12:10.949Z,358.92
2023-01-15T07:14:38.259Z,425.58
2023-01-15T07:17:05.528Z,250.27
2023-01-15T07:19:32.896Z,342.65
2023-01-15T07:22:00.187Z,331.02
2023-01-15T07:24:27.471Z,482.42
2023-01-15T07:26:54.916Z,296.27
2023-01-15T07:29:23.385Z,460.02
2023-01-15T07:31:51.248Z,364.00
2023-01-15T07:34:19.031Z,448.67
2023-01-15T07:36:46.399Z,252.13
2023-01-15T07:39:13.698Z,179.35
2023-01-15T07:41:59.786Z,258.25
2023-01-15T07:44:45.689Z,239.93
2023-01-15T07:47:42.312Z,231.27
2023-01-15T07:50:14.467Z,195.93
2023-01-15T07:52:41.792Z,241.90
2023-01-15T07:55:12.611Z,287.65
2023-01-15T07:57:41.563Z,310.08
2023-01-15T08:00:12.374Z,330.77
2023-01-15T08:02:40.463Z,289.85
2023-01-15T08:05:09.315Z,160.93
2023-01-15T08:07:41.017Z,221.38
2023-01-15T08:10:13.281Z,167.00
2023-01-15T08:12:59.918Z,144.85
2023-01-15T08:15:32.020Z,118.97
2023-01-15T08:17:59.345Z,113.28
2023-01-15T08:20:27.386Z,118.32
2023-01-15T08:22:54.768Z,164.27
2023-01-15T08:25:25.015Z,149.80
2023-01-15T08:27:53.601Z,147.48
2023-01-15T08:30:25.022Z,160.45
2023-01-15T08:32:52.835Z,154.52
2023-01-15T08:35:20.277Z,138.10
2023-01-15T08:37:47.748Z,137.40
2023-01-15T08:40:15.115Z,131.15
2023-01-15T08:42:42.578Z,112.22
2023-01-15T08:45:10.462Z,127.88
2023-01-15T08:47:38.016Z,124.07
2023-01-15T08:50:07.624Z,134.15
2023-01-15T08:52:34.989Z,114.70
2023-01-15T08:55:02.362Z,114.20
2023-01-15T08:57:29.771Z,112.57
2023-01-15T08:59:57.042Z,118.15
2023-01-15T09:02:24.329Z,107.95
2023-01-15T09:04:52.700Z,115.60
2023-01-15T09:07:20.267Z,125.72
2023-01-15T09:09:47.645Z,120.05
2023-01-15T09:12:14.920Z,119.18
2023-01-15T09:14:56.565Z,99.20
2023-01-15T09:17:29.493Z,98.15
2023-01-15T09:19:56.874Z,103.00
2023-01-15T09:22:25.389Z,104.72
2023-01-15T09:24:52.652Z,83.97
2023-01-15T09:27:19.989Z,82.18
2023-01-15T09:29:47.244Z,75.70
2023-01-15T09:32:14.521Z,67.63
2023-01-15T09:34:41.788Z,68.10
2023-01-15T09:37:09.418Z,81.97
2023-01-15T09:39:40.245Z,61.25
2023-01-15T09:42:10.485Z,57.00
2023-01-15T09:44:46.575Z,60.85
2023-01-15T09:47:18.162Z,55.15
2023-01-15T09:49:45.328Z,51.88
2023-01-15T09:52:25.632Z,51.72
2023-01-15T09:55:10.127Z,59.72
2023-01-15T09:57:37.901Z,60.95
2023-01-15T10:00:07.259Z,55.80
2023-01-15T10:02:48.412Z,51.25
2023-01-15T10:05:24.768Z,53.78
2023-01-15T10:07:52.057Z,50.90
2023-01-15T10:10:23.957Z,56.95
2023-01-15T10:12:57.895Z,62.08
2023-01-15T10:15:38.159Z,59.00
2023-01-15T10:18:08.802Z,69.72
2023-01-15T10:21:07.453Z,62.83
2023-01-15T10:24:02.831Z,59.83
2023-01-15T10:26:43.095Z,62.88
2023-01-15T10:29:26.617Z,62.25
2023-01-15T10:32:01.318Z,55.95
2023-01-15T10:35:10.177Z,62.35
2023-01-15T10:37:45.669Z,57.25
2023-01-15T10:40:50.154Z,60.78
2023-01-15T10:43:36.184Z,53.78
2023-01-15T10:46:12.924Z,59.72
2023-01-15T10:48:46.011Z,58.10
2023-01-15T10:51:23.174Z,56.90
2023-01-15T10:53:56.648Z,56.35
2023-01-15T10:56:35.680Z,57.70
2023-01-15T10:59:08.713Z,56.17
2023-01-15T11:01:37.883Z,57.47
2023-01-15T11:04:06.526Z,52.53
2023-01-15T11:06:35.327Z,54.70
2023-01-15T11:09:11.780Z,51.83
2023-01-15T11:12:18.817Z,54.85
2023-01-15T11:15:05.449Z,52.10
2023-01-15T11:18:00.810Z,45.83
2023-01-15T11:20:34.686Z,42.47
2023-01-15T11:23:28.602Z,46.45
2023-01-15T11:25:59.413Z,49.88
2023-01-15T11:28:40.730Z,46.45
2023-01-15T11:31:10.058Z,47.42
2023-01-15T11:33:38.291Z,46.22
2023-01-15T11:36:21.788Z,42.88
2023-01-15T11:38:50.925Z,45.03
2023-01-15T11:41:46.829Z,43.60
2023-01-15T11:44:34.065Z,45.50
2023-01-15T11:47:19.951Z,47.67
2023-01-15T11:50:13.036Z,36.83
2023-01-15T11:52:55.129Z,39.40
2023-01-15T11:55:25.966Z,40.40
2023-01-15T11:57:54.198Z,41.50
2023-01-15T12:00:22.983Z,36.70
2023-01-15T12:02:55.014Z,42.70
2023-01-15T12:05:34.650Z,42.58
2023-01-15T12:08:13.717Z,39.90
2023-01-15T12:11:21.339Z,42.90
2023-01-15T12:14:20.221Z,45.22
2023-01-15T12:17:02.621Z,45.75
2023-01-15T12:19:41.556Z,47.67
2023-01-15T12:22:33.716Z,44.00
2023-01-15T12:25:43.091Z,47.78
2023-01-15T12:28:17.859Z,39.58
2023-01-15T12:31:03.861Z,46.90
2023-01-15T12:33:53.643Z,47.78
2023-01-15T12:36:29.634Z,47.92
2023-01-15T12:39:01.517Z,57.17
2023-01-15T12:42:13.727Z,52.67
2023-01-15T12:45:00.999Z,52.13
2023-01-15T12:47:42.872Z,51.75
2023-01-15T12:50:27.396Z,47.13
2023-01-15T12:53:04.363Z,45.63
2023-01-15T12:55:38.081Z,50.95
2023-01-15T12:58:16.365Z,48.78
2023-01-15T13:00:45.354Z,51.60
2023-01-15T13:03:28.439Z,49.33
2023-01-15T13:06:05.545Z,54.70
2023-01-15T13:08:54.828Z,53.33
2023-01-15T13:11:22.564Z,55.88
2023-01-15T13:13:58.730Z,50.33
2023-01-15T13:16:33.492Z,51.88
2023-01-15T13:19:20.873Z,49.33
2023-01-15T13:21:53.108Z,50.80
2023-01-15T13:24:41.510Z,54.47
2023-01-15T13:27:24.524Z,51.85
2023-01-15T13:30:06.987Z,48.33
2023-01-15T13:32:48.661Z,49.42
2023-01-15T13:35:25.054Z,46.83
2023-01-15T13:37:56.439Z,54.70
2023-01-15T13:40:28.596Z,54.42
2023-01-15T13:42:56.540Z,51.13
2023-01-15T13:45:31.511Z,52.35
2023-01-15T13:48:06.609Z,52.45
2023-01-15T13:50:40.394Z,61.08
2023-01-15T13:53:26.341Z,55.08
2023-01-15T13:56:02.527Z,56.58
2023-01-15T13:58:32.805Z,53.25
2023-01-15T14:01:23.567Z,50.60
2023-01-15T14:04:18.108Z,53.90
2023-01-15T14:06:50.541Z,55.28
2023-01-15T14:09:20.661Z,49.53
2023-01-15T14:12:06.902Z,51.70
2023-01-15T14:15:01.539Z,61.00
2023-01-15T14:17:47.554Z,55.97
2023-01-15T14:20:36.854Z,53.83
2023-01-15T14:23:28.914Z,47.15
2023-01-15T14:26:14.471Z,58.17
2023-01-15T14:28:53.288Z,55.13
2023-01-15T14:31:28.720Z,59.83
2023-01-15T14:34:16.392Z,62.30
2023-01-15T14:36:46.334Z,61.63
2023-01-15T14:42:32.850Z,61.20
2023-01-15T14:45:05.680Z,66.00
2023-01-15T14:47:37.332Z,62.47
2023-01-15T14:50:39.039Z,62.53
2023-01-15T14:53:15.269Z,67.20
2023-01-15T14:55:51.558Z,62.22
2023-01-15T14:58:21.650Z,64.38
2023-01-15T15:00:55.724Z,63.40
2023-01-15T15:03:43.523Z,63.55
2023-01-15T15:06:12.639Z,64.85
2023-01-15T15:08:43.110Z,75.55
2023-01-15T15:11:37.480Z,72.90
2023-01-15T15:14:07.421Z,76.30
2023-01-15T15:19:26.636Z,65.05
2023-01-15T15:21:57.732Z,69.07
2023-01-15T15:24:30.020Z,73.25
2023-01-15T15:26:57.316Z,81.80
2023-01-15T15:29:24.531Z,103.60
2023-01-15T15:31:58.038Z,106.88
2023-01-15T15:34:34.071Z,91.05
2023-01-15T15:37:05.016Z,89.32
2023-01-15T15:39:43.383Z,89.40
2023-01-15T15:42:55.579Z,88.97
2023-01-15T15:45:44.495Z,94.35
2023-01-15T15:48:37.807Z,100.00
2023-01-15T15:51:22.399Z,91.45
2023-01-15T15:53:49.677Z,89.72
2023-01-15T15:56:17.933Z,95.53
2023-01-15T15:58:46.429Z,94.78
2023-01-15T16:01:14.173Z,94.35
2023-01-15T16:03:48.519Z,90.53
2023-01-15T16:06:24.701Z,87.45
2023-01-15T16:08:54.973Z,102.80
2023-01-15T16:11:24.758Z,109.97
2023-01-15T16:13:54.640Z,108.25
2023-01-15T16:16:26.137Z,110.38
2023-01-15T16:18:56.286Z,103.15
2023-01-15T16:21:35.793Z,108.25
2023-01-15T16:24:08.482Z,108.95
2023-01-15T16:26:44.803Z,106.45
2023-01-15T16:29:23.690Z,103.40
2023-01-15T16:31:51.876Z,99.05
2023-01-15T16:34:22.319Z,113.53
2023-01-15T16:36:49.845Z,116.75
2023-01-15T16:39:45.824Z,106.18
2023-01-15T16:42:32.699Z,97.18
2023-01-15T16:45:18.520Z,119.88
2023-01-15T16:48:08.809Z,132.65
2023-01-15T16:50:42.281Z,127.68
2023-01-15T16:53:36.783Z,134.07
2023-01-15T16:56:05.206Z,116.57
2023-01-15T16:58:38.531Z,116.22
2023-01-15T17:01:46.577Z,115.50
2023-01-15T17:04:28.677Z,111.07
2023-01-15T17:07:02.558Z,119.43
2023-01-15T17:09:33.436Z,115.25
2023-01-15T17:12:06.771Z,128.48
2023-01-15T17:14:34.005Z,111.32
2023-01-15T17:17:23.309Z,106.07
2023-01-15T17:19:52.498Z,99.15
2023-01-15T17:22:31.419Z,95.95
2023-01-15T17:25:01.101Z,98.40
2023-01-15T17:27:30.255Z,99.90
2023-01-15T17:29:57.550Z,103.18
2023-01-15T17:32:36.082Z,101.38
2023-01-15T17:35:03.623Z,102.20
2023-01-15T17:37:30.945Z,102.47
2023-01-15T17:39:58.264Z,102.45
2023-01-15T17:42:25.479Z,97.45
2023-01-15T17:44:52.681Z,112.28
2023-01-15T17:47:19.946Z,94.32
2023-01-15T17:49:47.231Z,90.93
2023-01-15T17:52:19.343Z,87.28
2023-01-15T17:55:05.373Z,79.45
2023-01-15T17:57:51.643Z,102.15
2023-01-15T18:00:37.691Z,92.57
2023-01-15T18:03:23.566Z,101.80
2023-01-15T18:05:51.913Z,84.50
2023-01-15T18:08:19.491Z,86.72
2023-01-15T18:10:46.735Z,81.72
2023-01-15T18:13:13.998Z,87.30
2023-01-15T18:15:41.496Z,81.68
2023-01-15T18:18:08.742Z,85.93
2023-01-15T18:20:36.013Z,82.10
2023-01-15T18:23:03.267Z,81.55
2023-01-15T18:25:30.480Z,85.07
2023-01-15T18:27:57.765Z,72.60
2023-01-15T18:30:25.028Z,78.60
2023-01-15T18:32:52.301Z,78.97
2023-01-15T18:35:19.563Z,83.07
2023-01-15T18:37:46.763Z,76.82
2023-01-15T18:40:14.667Z,76.20
2023-01-15T18:43:00.495Z,77.50
2023-01-15T18:45:46.142Z,73.85
2023-01-15T18:48:13.443Z,75.85
2023-01-15T18:50:40.723Z,75.03
2023-01-15T18:53:08.677Z,76.25
2023-01-15T18:55:35.972Z,76.10
2023-01-15T18:58:03.416Z,72.15
2023-01-15T19:00:30.750Z,68.90
2023-01-15T19:02:58.012Z,67.45
2023-01-15T19:05:25.392Z,65.95
2023-01-15T19:07:52.665Z,68.25
2023-01-15T19:10:19.912Z,78.13
2023-01-15T19:12:47.267Z,61.28
2023-01-15T19:15:36.351Z,68.93
2023-01-15T19:18:23.973Z,66.38
2023-01-15T19:20:51.327Z,65.07
2023-01-15T19:23:20.604Z,66.47
2023-01-15T19:25:51.426Z,58.70
2023-01-15T19:28:20.574Z,61.33
2023-01-15T19:31:12.043Z,64.30
2023-01-15T19:33:39.517Z,60.50
2023-01-15T19:36:07.069Z,52.92
2023-01-15T19:38:38.304Z,62.55
2023-01-15T19:41:30.744Z,55.13
2023-01-15T19:44:16.541Z,55.53
2023-01-15T19:47:02.929Z,69.55
2023-01-15T19:49:54.102Z,64.50
2023-01-15T19:52:37.811Z,65.95
2023-01-15T19:55:08.437Z,67.68
2023-01-15T19:57:35.658Z,63.00
2023-01-15T20:00:05.024Z,67.47
2023-01-15T20:02:36.740Z,69.35
2023-01-15T20:05:05.583Z,65.93
2023-01-15T20:07:33.055Z,65.55
2023-01-15T20:10:00.657Z,62.38
2023-01-15T20:12:47.885Z,66.95
2023-01-15T20:15:15.216Z,62.88
2023-01-15T20:17:42.527Z,76.15
2023-01-15T20:20:11.285Z,78.38
2023-01-15T20:22:38.677Z,65.75
2023-01-15T20:25:06.562Z,70.97
2023-01-15T20:27:35.959Z,71.93
2023-01-15T20:30:10.618Z,64.10
2023-01-15T20:32:40.004Z,68.38
2023-01-15T20:35:09.405Z,76.20
2023-01-15T20:37:36.700Z,64.78
2023-01-15T20:40:05.485Z,69.90
2023-01-15T20:42:51.409Z,70.30
2023-01-15T20:45:18.777Z,67.72
2023-01-15T20:48:04.622Z,58.83
2023-01-15T20:50:34.479Z,68.72
2023-01-15T20:53:02.683Z,69.45
2023-01-15T20:55:45.851Z,65.47
2023-01-15T20:58:17.181Z,62.58
2023-01-15T21:00:44.450Z,70.47
2023-01-15T21:03:12.104Z,75.63
2023-01-15T21:05:39.378Z,80.90
2023-01-15T21:08:06.585Z,70.70
2023-01-15T21:10:33.794Z,62.92
2023-01-15T21:13:01.016Z,53.33
2023-01-15T21:15:28.258Z,50.90
2023-01-15T21:17:55.453Z,52.60
2023-01-15T21:20:22.700Z,54.30
2023-01-15T21:22:50.007Z,54.55
2023-01-15T21:25:17.416Z,54.17
2023-01-15T21:27:44.734Z,49.67
2023-01-15T21:30:12.314Z,51.85
2023-01-15T21:32:39.615Z,61.95
2023-01-15T21:35:07.692Z,59.63
2023-01-15T21:37:34.924Z,58.42
2023-01-15T21:40:02.245Z,56.50
2023-01-15T21:42:47.815Z,59.63
2023-01-15T21:45:15.202Z,61.10
2023-01-15T21:47:42.582Z,58.53
2023-01-15T21:50:10.168Z,53.88
2023-01-15T21:52:37.567Z,57.90
2023-01-15T21:55:05.411Z,61.15
2023-01-15T22:01:15.592Z,57.83
2023-01-15T22:03:42.975Z,60.53
2023-01-15T22:06:10.707Z,59.75
2023-01-15T22:08:38.022Z,61.78
2023-01-15T22:11:06.941Z,69.72
2023-01-15T22:13:35.295Z,76.00
2023-01-15T22:16:05.635Z,90.82
2023-01-15T22:18:34.188Z,81.30
2023-01-15T22:21:15.630Z,94.93
2023-01-15T22:23:43.224Z,81.32
2023-01-15T22:26:22.109Z,79.28
2023-01-15T22:28:49.417Z,78.65
2023-01-15T22:31:17.929Z,79.80
2023-01-15T22:33:46.322Z,80.57
2023-01-15T22:36:14.814Z,83.47
2023-01-15T22:38:42.091Z,81.15
2023-01-15T22:41:09.849Z,89.60
2023-01-15T22:43:37.229Z,81.93
2023-01-15T22:46:09.876Z,77.85
2023-01-15T22:48:37.411Z,80.97
2023-01-15T22:51:05.204Z,86.20
2023-01-15T22:53:32.474Z,78.68
2023-01-15T22:56:00.317Z,86.15
2023-01-15T22:58:27.556Z,88.82
2023-01-15T23:00:56.003Z,88.60
2023-01-15T23:03:23.827Z,78.28
2023-01-15T23:05:51.041Z,86.43
2023-01-15T23:08:18.350Z,81.40
2023-01-15T23:10:47.555Z,83.32
2023-01-15T23:13:14.813Z,77.28
2023-01-15T23:15:42.225Z,80.25
2023-01-15T23:18:09.474Z,78.22
2023-01-15T23:20:36.663Z,79.25
2023-01-15T23:23:03.916Z,79.95
2023-01-15T23:25:31.103Z,76.03
2023-01-15T23:27:58.286Z,78.15
2023-01-15T23:30:25.549Z,85.57
2023-01-15T23:32:52.756Z,81.93
2023-01-15T23:35:20.136Z,82.80
2023-01-15T23:37:47.675Z,75.65
2023-01-15T23:40:15.342Z,72.50
2023-01-15T23:43:01.084Z,76.53
2023-01-15T23:45:46.606Z,79.70
2023-01-15T23:48:13.827Z,71.28
2023-01-15T23:50:41.072Z,74.07
2023-01-15T23:53:08.309Z,80.35
2023-01-15T23:55:35.592Z,80.47
2023-01-15T23:58:02.843Z,77.43
